sensor_id;sensor_type;location;lat;lon;timestamp;pressure;altitude;pressure_sealevel;temperature;humidity
53619;BME280;68717;53.040;18.488;2023-08-07T00:00:00;99490.81;;;15.65;100.00
53619;BME280;68717;53.040;18.488;2023-08-07T00:00:15;99497.25;;;15.64;100.00
53619;BME280;68717;53.040;18.488;2023-08-07T00:00:49;99495.56;;;15.63;100.00
53619;BME280;68717;53.040;18.488;2023-08-07T00:01:17;99500.16;;;15.63;100.00
53619;BME280;68717;53.040;18.488;2023-08-07T00:01:30;99499.31;;;15.62;100.00
53619;BME280;68717;53.040;18.488;2023-08-07T00:01:42;99502.03;;;15.62;100.00
53619;BME280;68717;53.040;18.488;2023-08-07T00:01:56;99501.19;;;15.62;100.00
53619;BME280;68717;53.040;18.488;2023-08-07T00:02:09;99503.03;;;15.61;100.00
53619;BME280;68717;53.040;18.488;2023-08-07T00:02:21;99497.63;;;15.61;100.00
53619;BME280;68717;53.040;18.488;2023-08-07T00:02:34;99505.75;;;15.61;100.00
53619;BME280;68717;53.040;18.488;2023-08-07T00:02:46;99508.44;;;15.61;100.00
53619;BME280;68717;53.040;18.488;2023-08-07T00:02:59;99501.38;;;15.60;100.00
53619;BME280;68717;53.040;18.488;2023-08-07T00:03:12;99506.78;;;15.60;100.00
53619;BME280;68717;53.040;18.488;2023-08-07T00:03:30;99501.38;;;15.60;100.00
53619;BME280;68717;53.040;18.488;2023-08-07T00:03:43;99496.16;;;15.58;100.00
53619;BME280;68717;53.040;18.488;2023-08-07T00:03:56;99500.56;;;15.59;100.00
53619;BME280;68717;53.040;18.488;2023-08-07T00:04:09;99505.13;;;15.59;100.00
53619;BME280;68717;53.040;18.488;2023-08-07T00:04:22;99512.19;;;15.60;100.00
53619;BME280;68717;53.040;18.488;2023-08-07T00:04:34;99504.09;;;15.60;100.00
53619;BME280;68717;53.040;18.488;2023-08-07T00:04:47;99505.13;;;15.59;100.00
53619;BME280;68717;53.040;18.488;2023-08-07T00:04:59;99509.69;;;15.58;100.00
53619;BME280;68717;53.040;18.488;2023-08-07T00:05:12;99497.03;;;15.59;100.00
53619;BME280;68717;53.040;18.488;2023-08-07T00:05:25;99498.03;;;15.58;100.00
53619;BME280;68717;53.040;18.488;2023-08-07T00:05:37;99503.44;;;15.58;100.00
53619;BME280;68717;53.040;18.488;2023-08-07T00:05:51;99505.13;;;15.59;100.00
53619;BME280;68717;53.040;18.488;2023-08-07T00:06:04;99504.28;;;15.58;100.00
53619;BME280;68717;53.040;18.488;2023-08-07T00:06:16;99504.28;;;15.58;100.00
53619;BME280;68717;53.040;18.488;2023-08-07T00:06:29;99498.88;;;15.58;100.00
53619;BME280;68717;53.040;18.488;2023-08-07T00:06:42;99503.44;;;15.58;100.00
53619;BME280;68717;53.040;18.488;2023-08-07T00:06:54;99506.97;;;15.58;100.00
53619;BME280;68717;53.040;18.488;2023-08-07T00:07:07;99498.03;;;15.58;100.00
53619;BME280;68717;53.040;18.488;2023-08-07T00:07:20;99496.38;;;15.57;100.00
53619;BME280;68717;53.040;18.488;2023-08-07T00:07:32;99504.50;;;15.57;100.00
53619;BME280;68717;53.040;18.488;2023-08-07T00:07:46;99498.03;;;15.58;100.00
53619;BME280;68717;53.040;18.488;2023-08-07T00:07:59;99500.75;;;15.58;100.00
53619;BME280;68717;53.040;18.488;2023-08-07T00:08:11;99493.69;;;15.57;100.00
53619;BME280;68717;53.040;18.488;2023-08-07T00:08:24;99498.03;;;15.58;100.00
53619;BME280;68717;53.040;18.488;2023-08-07T00:08:37;99497.22;;;15.57;100.00
53619;BME280;68717;53.040;18.488;2023-08-07T00:08:50;99499.91;;;15.57;100.00
53619;BME280;68717;53.040;18.488;2023-08-07T00:09:03;99500.09;;;15.56;100.00
53619;BME280;68717;53.040;18.488;2023-08-07T00:09:16;99496.38;;;15.57;100.00
53619;BME280;68717;53.040;18.488;2023-08-07T00:09:30;99497.41;;;15.56;100.00
53619;BME280;68717;53.040;18.488;2023-08-07T00:09:43;99495.53;;;15.56;100.00
53619;BME280;68717;53.040;18.488;2023-08-07T00:09:55;99500.94;;;15.56;100.00
53619;BME280;68717;53.040;18.488;2023-08-07T00:10:09;99494.69;;;15.56;100.00
53619;BME280;68717;53.040;18.488;2023-08-07T00:10:21;99498.22;;;15.56;100.00
53619;BME280;68717;53.040;18.488;2023-08-07T00:10:34;99501.78;;;15.57;100.00
53619;BME280;68717;53.040;18.488;2023-08-07T00:10:46;99503.63;;;15.56;100.00
53619;BME280;68717;53.040;18.488;2023-08-07T00:11:07;99494.69;;;15.56;100.00
53619;BME280;68717;53.040;18.488;2023-08-07T00:11:19;99496.38;;;15.57;100.00
53619;BME280;68717;53.040;18.488;2023-08-07T00:11:33;99496.38;;;15.57;100.00
53619;BME280;68717;53.040;18.488;2023-08-07T00:11:46;99501.97;;;15.55;100.00
53619;BME280;68717;53.040;18.488;2023-08-07T00:11:58;99500.09;;;15.56;100.00
53619;BME280;68717;53.040;18.488;2023-08-07T00:12:11;99499.28;;;15.55;100.00
53619;BME280;68717;53.040;18.488;2023-08-07T00:12:24;99509.25;;;15.55;100.00
53619;BME280;68717;53.040;18.488;2023-08-07T00:12:36;99495.91;;;15.53;100.00
53619;BME280;68717;53.040;18.488;2023-08-07T00:12:49;99501.31;;;15.53;100.00
53619;BME280;68717;53.040;18.488;2023-08-07T00:13:02;99501.31;;;15.53;100.00
53619;BME280;68717;53.040;18.488;2023-08-07T00:13:15;99499.44;;;15.54;100.00
53619;BME280;68717;53.040;18.488;2023-08-07T00:13:28;99498.59;;;15.53;100.00
53619;BME280;68717;53.040;18.488;2023-08-07T00:13:41;99500.47;;;15.53;100.00
53619;BME280;68717;53.040;18.488;2023-08-07T00:13:54;99502.31;;;15.52;100.00
53619;BME280;68717;53.040;18.488;2023-08-07T00:14:07;99502.31;;;15.52;100.00
53619;BME280;68717;53.040;18.488;2023-08-07T00:14:20;99504.19;;;15.52;100.00
53619;BME280;68717;53.040;18.488;2023-08-07T00:14:32;99504.19;;;15.52;100.00
53619;BME280;68717;53.040;18.488;2023-08-07T00:14:47;99504.19;;;15.52;100.00
53619;BME280;68717;53.040;18.488;2023-08-07T00:14:59;99501.50;;;15.52;100.00
53619;BME280;68717;53.040;18.488;2023-08-07T00:15:14;99499.63;;;15.52;100.00
53619;BME280;68717;53.040;18.488;2023-08-07T00:15:28;99498.78;;;15.52;100.00
53619;BME280;68717;53.040;18.488;2023-08-07T00:15:40;99497.97;;;15.51;100.00
53619;BME280;68717;53.040;18.488;2023-08-07T00:15:53;99493.38;;;15.52;100.00
53619;BME280;68717;53.040;18.488;2023-08-07T00:16:06;99499.63;;;15.52;100.00
53619;BME280;68717;53.040;18.488;2023-08-07T00:16:20;99495.06;;;15.53;100.00
53619;BME280;68717;53.040;18.488;2023-08-07T00:16:33;99492.56;;;15.51;100.00
53619;BME280;68717;53.040;18.488;2023-08-07T00:16:46;99492.38;;;15.53;100.00
53619;BME280;68717;53.040;18.488;2023-08-07T00:16:58;99502.31;;;15.52;100.00
53619;BME280;68717;53.040;18.488;2023-08-07T00:17:12;99496.09;;;15.52;100.00
53619;BME280;68717;53.040;18.488;2023-08-07T00:17:25;99496.09;;;15.52;100.00
53619;BME280;68717;53.040;18.488;2023-08-07T00:17:37;99499.63;;;15.52;100.00
53619;BME280;68717;53.040;18.488;2023-08-07T00:17:50;99494.22;;;15.52;100.00
53619;BME280;68717;53.040;18.488;2023-08-07T00:18:03;99499.44;;;15.54;100.00
53619;BME280;68717;53.040;18.488;2023-08-07T00:18:15;99498.59;;;15.53;100.00
53619;BME280;68717;53.040;18.488;2023-08-07T00:18:28;99495.06;;;15.53;100.00
53619;BME280;68717;53.040;18.488;2023-08-07T00:18:41;99500.47;;;15.53;100.00
53619;BME280;68717;53.040;18.488;2023-08-07T00:18:53;99498.59;;;15.53;100.00
53619;BME280;68717;53.040;18.488;2023-08-07T00:19:08;99500.47;;;15.53;100.00
53619;BME280;68717;53.040;18.488;2023-08-07T00:19:21;99495.91;;;15.53;100.00
53619;BME280;68717;53.040;18.488;2023-08-07T00:19:33;99490.50;;;15.53;100.00
53619;BME280;68717;53.040;18.488;2023-08-07T00:19:46;99495.06;;;15.53;100.00
53619;BME280;68717;53.040;18.488;2023-08-07T00:19:59;99500.47;;;15.53;100.00
53619;BME280;68717;53.040;18.488;2023-08-07T00:20:11;99494.44;;;15.51;100.00
53619;BME280;68717;53.040;18.488;2023-08-07T00:20:24;99494.44;;;15.51;100.00
53619;BME280;68717;53.040;18.488;2023-08-07T00:20:36;99497.13;;;15.51;100.00
53619;BME280;68717;53.040;18.488;2023-08-07T00:20:52;99500.66;;;15.51;100.00
53619;BME280;68717;53.040;18.488;2023-08-07T00:21:05;99494.44;;;15.51;100.00
53619;BME280;68717;53.040;18.488;2023-08-07T00:21:18;99499.84;;;15.51;100.00
53619;BME280;68717;53.040;18.488;2023-08-07T00:21:31;99492.75;;;15.50;100.00
53619;BME280;68717;53.040;18.488;2023-08-07T00:21:43;99489.84;;;15.51;100.00
53619;BME280;68717;53.040;18.488;2023-08-07T00:21:56;99489.03;;;15.51;100.00
53619;BME280;68717;53.040;18.488;2023-08-07T00:22:09;99499.84;;;15.51;100.00
53619;BME280;68717;53.040;18.488;2023-08-07T00:22:21;99495.44;;;15.50;100.00
53619;BME280;68717;53.040;18.488;2023-08-07T00:22:34;99498.16;;;15.50;100.00
53619;BME280;68717;53.040;18.488;2023-08-07T00:22:47;99490.03;;;15.50;100.00
53619;BME280;68717;53.040;18.488;2023-08-07T00:23:00;99497.31;;;15.49;100.00
53619;BME280;68717;53.040;18.488;2023-08-07T00:23:13;99491.91;;;15.49;100.00
53619;BME280;68717;53.040;18.488;2023-08-07T00:23:25;99495.44;;;15.50;100.00
53619;BME280;68717;53.040;18.488;2023-08-07T00:23:38;99488.38;;;15.49;100.00
53619;BME280;68717;53.040;18.488;2023-08-07T00:23:50;99491.91;;;15.49;100.00
53619;BME280;68717;53.040;18.488;2023-08-07T00:24:03;99492.97;;;15.48;100.00
53619;BME280;68717;53.040;18.488;2023-08-07T00:24:16;99493.78;;;15.49;100.00
53619;BME280;68717;53.040;18.488;2023-08-07T00:24:29;99496.69;;;15.47;100.00
53619;BME280;68717;53.040;18.488;2023-08-07T00:24:41;99488.75;;;15.46;100.00
53619;BME280;68717;53.040;18.488;2023-08-07T00:24:54;99494.16;;;15.46;100.00
53619;BME280;68717;53.040;18.488;2023-08-07T00:25:08;99488.75;;;15.46;100.00
53619;BME280;68717;53.040;18.488;2023-08-07T00:25:20;99490.44;;;15.47;100.00
53619;BME280;68717;53.040;18.488;2023-08-07T00:25:33;99487.94;;;15.45;100.00
53619;BME280;68717;53.040;18.488;2023-08-07T00:25:46;99487.09;;;15.45;100.00
53619;BME280;68717;53.040;18.488;2023-08-07T00:25:58;99489.81;;;15.45;100.00
53619;BME280;68717;53.040;18.488;2023-08-07T00:26:11;99491.69;;;15.44;100.00
53619;BME280;68717;53.040;18.488;2023-08-07T00:26:23;99487.09;;;15.45;100.00
53619;BME280;68717;53.040;18.488;2023-08-07T00:26:36;99491.69;;;15.44;100.00
53619;BME280;68717;53.040;18.488;2023-08-07T00:26:48;99491.69;;;15.44;100.00
53619;BME280;68717;53.040;18.488;2023-08-07T00:27:02;99491.69;;;15.44;100.00
53619;BME280;68717;53.040;18.488;2023-08-07T00:27:15;99490.81;;;15.44;100.00
53619;BME280;68717;53.040;18.488;2023-08-07T00:27:27;99485.41;;;15.44;100.00
53619;BME280;68717;53.040;18.488;2023-08-07T00:27:40;99486.28;;;15.44;100.00
53619;BME280;68717;53.040;18.488;2023-08-07T00:27:53;99486.28;;;15.44;100.00
53619;BME280;68717;53.040;18.488;2023-08-07T00:28:05;99490.81;;;15.44;100.00
53619;BME280;68717;53.040;18.488;2023-08-07T00:28:18;99482.72;;;15.44;100.00
53619;BME280;68717;53.040;18.488;2023-08-07T00:28:31;99485.41;;;15.44;100.00
53619;BME280;68717;53.040;18.488;2023-08-07T00:28:45;99488.97;;;15.44;100.00
53619;BME280;68717;53.040;18.488;2023-08-07T00:28:58;99486.28;;;15.44;100.00
53619;BME280;68717;53.040;18.488;2023-08-07T00:29:11;99486.28;;;15.44;100.00
53619;BME280;68717;53.040;18.488;2023-08-07T00:29:23;99492.50;;;15.45;100.00
53619;BME280;68717;53.040;18.488;2023-08-07T00:29:36;99487.09;;;15.45;100.00
53619;BME280;68717;53.040;18.488;2023-08-07T00:29:49;99492.50;;;15.45;100.00
53619;BME280;68717;53.040;18.488;2023-08-07T00:30:01;99494.38;;;15.44;100.00
53619;BME280;68717;53.040;18.488;2023-08-07T00:30:15;99489.81;;;15.45;100.00
53619;BME280;68717;53.040;18.488;2023-08-07T00:30:28;99487.09;;;15.45;100.00
53619;BME280;68717;53.040;18.488;2023-08-07T00:30:42;99488.13;;;15.44;100.00
53619;BME280;68717;53.040;18.488;2023-08-07T00:30:54;99489.81;;;15.45;100.00
53619;BME280;68717;53.040;18.488;2023-08-07T00:31:07;99487.28;;;15.43;100.00
53619;BME280;68717;53.040;18.488;2023-08-07T00:31:20;99483.75;;;15.43;100.00
53619;BME280;68717;53.040;18.488;2023-08-07T00:31:33;99479.19;;;15.43;100.00
53619;BME280;68717;53.040;18.488;2023-08-07T00:31:45;99483.75;;;15.43;100.00
53619;BME280;68717;53.040;18.488;2023-08-07T00:31:58;99485.41;;;15.44;100.00
53619;BME280;68717;53.040;18.488;2023-08-07T00:32:10;99481.88;;;15.43;100.00
53619;BME280;68717;53.040;18.488;2023-08-07T00:32:24;99483.75;;;15.43;100.00
53619;BME280;68717;53.040;18.488;2023-08-07T00:32:36;99481.06;;;15.43;100.00
53619;BME280;68717;53.040;18.488;2023-08-07T00:32:49;99482.72;;;15.44;100.00
53619;BME280;68717;53.040;18.488;2023-08-07T00:33:02;99486.47;;;15.43;100.00
53619;BME280;68717;53.040;18.488;2023-08-07T00:33:15;99479.19;;;15.43;100.00
53619;BME280;68717;53.040;18.488;2023-08-07T00:33:27;99484.81;;;15.42;100.00
53619;BME280;68717;53.040;18.488;2023-08-07T00:33:40;99483.75;;;15.43;100.00
53619;BME280;68717;53.040;18.488;2023-08-07T00:33:52;99482.09;;;15.42;100.00
53619;BME280;68717;53.040;18.488;2023-08-07T00:34:07;99475.00;;;15.40;100.00
53619;BME280;68717;53.040;18.488;2023-08-07T00:34:21;99482.09;;;15.42;100.00
53619;BME280;68717;53.040;18.488;2023-08-07T00:34:34;99483.13;;;15.40;100.00
53619;BME280;68717;53.040;18.488;2023-08-07T00:34:47;99479.59;;;15.40;100.00
53619;BME280;68717;53.040;18.488;2023-08-07T00:34:59;99480.41;;;15.40;100.00
53619;BME280;68717;53.040;18.488;2023-08-07T00:35:12;99481.25;;;15.41;100.00
53619;BME280;68717;53.040;18.488;2023-08-07T00:35:24;99483.13;;;15.40;100.00
53619;BME280;68717;53.040;18.488;2023-08-07T00:35:37;99478.53;;;15.41;100.00
53619;BME280;68717;53.040;18.488;2023-08-07T00:35:49;99476.88;;;15.40;100.00
53619;BME280;68717;53.040;18.488;2023-08-07T00:36:03;99483.13;;;15.40;100.00
53619;BME280;68717;53.040;18.488;2023-08-07T00:36:16;99480.41;;;15.40;100.00
53619;BME280;68717;53.040;18.488;2023-08-07T00:36:28;99484.81;;;15.42;100.00
53619;BME280;68717;53.040;18.488;2023-08-07T00:36:41;99487.50;;;15.42;100.00
53619;BME280;68717;53.040;18.488;2023-08-07T00:36:54;99481.25;;;15.41;100.00
53619;BME280;68717;53.040;18.488;2023-08-07T00:37:07;99482.09;;;15.42;100.00
53619;BME280;68717;53.040;18.488;2023-08-07T00:37:19;99482.94;;;15.42;100.00
53619;BME280;68717;53.040;18.488;2023-08-07T00:37:32;99482.94;;;15.42;100.00
53619;BME280;68717;53.040;18.488;2023-08-07T00:37:44;99484.81;;;15.42;100.00
53619;BME280;68717;53.040;18.488;2023-08-07T00:37:58;99484.81;;;15.42;100.00
53619;BME280;68717;53.040;18.488;2023-08-07T00:38:10;99480.41;;;15.40;100.00
53619;BME280;68717;53.040;18.488;2023-08-07T00:38:23;99486.66;;;15.41;100.00
53619;BME280;68717;53.040;18.488;2023-08-07T00:38:36;99482.09;;;15.42;100.00
53619;BME280;68717;53.040;18.488;2023-08-07T00:38:49;99482.09;;;15.42;100.00
53619;BME280;68717;53.040;18.488;2023-08-07T00:39:02;99483.94;;;15.41;100.00
53619;BME280;68717;53.040;18.488;2023-08-07T00:39:15;99475.84;;;15.41;100.00
53619;BME280;68717;53.040;18.488;2023-08-07T00:39:28;99486.47;;;15.43;100.00
53619;BME280;68717;53.040;18.488;2023-08-07T00:39:40;99486.47;;;15.43;100.00
53619;BME280;68717;53.040;18.488;2023-08-07T00:39:54;99483.75;;;15.43;100.00
53619;BME280;68717;53.040;18.488;2023-08-07T00:40:08;99483.75;;;15.43;100.00
53619;BME280;68717;53.040;18.488;2023-08-07T00:40:20;99482.94;;;15.42;100.00
53619;BME280;68717;53.040;18.488;2023-08-07T00:40:36;99490.81;;;15.44;100.00
53619;BME280;68717;53.040;18.488;2023-08-07T00:40:50;99480.00;;;15.44;100.00
53619;BME280;68717;53.040;18.488;2023-08-07T00:41:02;99487.09;;;15.45;100.00
53619;BME280;68717;53.040;18.488;2023-08-07T00:41:16;99488.75;;;15.46;100.00
53619;BME280;68717;53.040;18.488;2023-08-07T00:41:30;99487.09;;;15.45;100.00
53619;BME280;68717;53.040;18.488;2023-08-07T00:41:42;99480.00;;;15.44;100.00
53619;BME280;68717;53.040;18.488;2023-08-07T00:41:55;99475.47;;;15.44;100.00
53619;BME280;68717;53.040;18.488;2023-08-07T00:42:07;99481.69;;;15.45;100.00
53619;BME280;68717;53.040;18.488;2023-08-07T00:42:20;99479.81;;;15.45;100.00
53619;BME280;68717;53.040;18.488;2023-08-07T00:42:32;99482.53;;;15.45;100.00
53619;BME280;68717;53.040;18.488;2023-08-07T00:42:45;99481.69;;;15.45;100.00
53619;BME280;68717;53.040;18.488;2023-08-07T00:42:57;99479.00;;;15.45;100.00
53619;BME280;68717;53.040;18.488;2023-08-07T00:43:10;99482.53;;;15.45;100.00
53619;BME280;68717;53.040;18.488;2023-08-07T00:43:23;99487.09;;;15.45;100.00
53619;BME280;68717;53.040;18.488;2023-08-07T00:43:36;99476.31;;;15.45;100.00
53619;BME280;68717;53.040;18.488;2023-08-07T00:43:49;99483.34;;;15.46;100.00
53619;BME280;68717;53.040;18.488;2023-08-07T00:44:01;99483.34;;;15.46;100.00
53619;BME280;68717;53.040;18.488;2023-08-07T00:44:14;99482.53;;;15.45;100.00
53619;BME280;68717;53.040;18.488;2023-08-07T00:44:26;99479.63;;;15.47;100.00
53619;BME280;68717;53.040;18.488;2023-08-07T00:44:39;99479.63;;;15.47;100.00
53619;BME280;68717;53.040;18.488;2023-08-07T00:44:52;99485.03;;;15.47;100.00
53619;BME280;68717;53.040;18.488;2023-08-07T00:45:05;99486.69;;;15.48;100.00
53619;BME280;68717;53.040;18.488;2023-08-07T00:45:20;99479.47;;;15.48;100.00
53619;BME280;68717;53.040;18.488;2023-08-07T00:45:36;99479.63;;;15.47;100.00
53619;BME280;68717;53.040;18.488;2023-08-07T00:45:50;99481.28;;;15.48;100.00
53619;BME280;68717;53.040;18.488;2023-08-07T00:46:02;99481.28;;;15.48;100.00
53619;BME280;68717;53.040;18.488;2023-08-07T00:46:15;99481.28;;;15.48;100.00
53619;BME280;68717;53.040;18.488;2023-08-07T00:46:27;99484.00;;;15.48;100.00
53619;BME280;68717;53.040;18.488;2023-08-07T00:46:41;99484.00;;;15.48;100.00
53619;BME280;68717;53.040;18.488;2023-08-07T00:46:54;99485.88;;;15.47;100.00
53619;BME280;68717;53.040;18.488;2023-08-07T00:47:08;99480.47;;;15.47;100.00
53619;BME280;68717;53.040;18.488;2023-08-07T00:47:21;99478.81;;;15.46;100.00
53619;BME280;68717;53.040;18.488;2023-08-07T00:47:34;99482.34;;;15.47;100.00
53619;BME280;68717;53.040;18.488;2023-08-07T00:47:47;99477.97;;;15.46;100.00
53619;BME280;68717;53.040;18.488;2023-08-07T00:48:00;99475.06;;;15.47;100.00
53619;BME280;68717;53.040;18.488;2023-08-07T00:48:13;99479.63;;;15.47;100.00
53619;BME280;68717;53.040;18.488;2023-08-07T00:48:27;99475.06;;;15.47;100.00
53619;BME280;68717;53.040;18.488;2023-08-07T00:48:40;99483.34;;;15.46;100.00
53619;BME280;68717;53.040;18.488;2023-08-07T00:48:54;99486.06;;;15.46;100.00
53619;BME280;68717;53.040;18.488;2023-08-07T00:49:07;99476.13;;;15.46;100.00
53619;BME280;68717;53.040;18.488;2023-08-07T00:49:21;99479.63;;;15.47;100.00
53619;BME280;68717;53.040;18.488;2023-08-07T00:49:34;99485.03;;;15.47;100.00
53619;BME280;68717;53.040;18.488;2023-08-07T00:49:48;99477.97;;;15.46;100.00
53619;BME280;68717;53.040;18.488;2023-08-07T00:50:02;99476.13;;;15.46;100.00
53619;BME280;68717;53.040;18.488;2023-08-07T00:50:16;99483.34;;;15.46;100.00
53619;BME280;68717;53.040;18.488;2023-08-07T00:50:28;99480.47;;;15.47;100.00
53619;BME280;68717;53.040;18.488;2023-08-07T00:50:58;99483.16;;;15.47;100.00
53619;BME280;68717;53.040;18.488;2023-08-07T00:51:12;99479.63;;;15.47;100.00
53619;BME280;68717;53.040;18.488;2023-08-07T00:51:25;99479.63;;;15.47;100.00
53619;BME280;68717;53.040;18.488;2023-08-07T00:51:39;99484.22;;;15.46;100.00
53619;BME280;68717;53.040;18.488;2023-08-07T00:51:52;99479.63;;;15.47;100.00
53619;BME280;68717;53.040;18.488;2023-08-07T00:52:05;99473.19;;;15.48;100.00
53619;BME280;68717;53.040;18.488;2023-08-07T00:52:18;99478.81;;;15.46;100.00
53619;BME280;68717;53.040;18.488;2023-08-07T00:52:32;99474.25;;;15.47;100.00
53619;BME280;68717;53.040;18.488;2023-08-07T00:52:45;99475.91;;;15.48;100.00
53619;BME280;68717;53.040;18.488;2023-08-07T00:52:59;99477.78;;;15.47;100.00
53619;BME280;68717;53.040;18.488;2023-08-07T00:53:12;99479.63;;;15.47;100.00
53619;BME280;68717;53.040;18.488;2023-08-07T00:53:25;99480.47;;;15.47;100.00
53619;BME280;68717;53.040;18.488;2023-08-07T00:53:39;99483.16;;;15.47;100.00
53619;BME280;68717;53.040;18.488;2023-08-07T00:53:52;99479.63;;;15.47;100.00
53619;BME280;68717;53.040;18.488;2023-08-07T00:54:05;99481.28;;;15.48;100.00
53619;BME280;68717;53.040;18.488;2023-08-07T00:54:18;99485.03;;;15.47;100.00
53619;BME280;68717;53.040;18.488;2023-08-07T00:54:32;99475.91;;;15.48;100.00
53619;BME280;68717;53.040;18.488;2023-08-07T00:54:45;99481.28;;;15.48;100.00
53619;BME280;68717;53.040;18.488;2023-08-07T00:54:58;99484.00;;;15.48;100.00
53619;BME280;68717;53.040;18.488;2023-08-07T00:55:11;99480.47;;;15.47;100.00
53619;BME280;68717;53.040;18.488;2023-08-07T00:55:24;99482.16;;;15.48;100.00
53619;BME280;68717;53.040;18.488;2023-08-07T00:55:37;99479.47;;;15.48;100.00
53619;BME280;68717;53.040;18.488;2023-08-07T00:55:50;99478.59;;;15.48;100.00
53619;BME280;68717;53.040;18.488;2023-08-07T00:56:03;99481.28;;;15.48;100.00
53619;BME280;68717;53.040;18.488;2023-08-07T00:56:16;99485.69;;;15.49;100.00
53619;BME280;68717;53.040;18.488;2023-08-07T00:56:29;99482.16;;;15.48;100.00
53619;BME280;68717;53.040;18.488;2023-08-07T00:56:44;99482.97;;;15.49;100.00
53619;BME280;68717;53.040;18.488;2023-08-07T00:56:58;99482.16;;;15.48;100.00
53619;BME280;68717;53.040;18.488;2023-08-07T00:57:15;99479.47;;;15.48;100.00
53619;BME280;68717;53.040;18.488;2023-08-07T00:57:29;99473.00;;;15.49;100.00
53619;BME280;68717;53.040;18.488;2023-08-07T00:57:42;99478.41;;;15.49;100.00
53619;BME280;68717;53.040;18.488;2023-08-07T00:57:56;99477.59;;;15.49;100.00
53619;BME280;68717;53.040;18.488;2023-08-07T00:58:09;99472.19;;;15.49;100.00
53619;BME280;68717;53.040;18.488;2023-08-07T00:58:22;99482.97;;;15.49;100.00
53619;BME280;68717;53.040;18.488;2023-08-07T00:58:36;99475.06;;;15.47;100.00
53619;BME280;68717;53.040;18.488;2023-08-07T00:58:49;99477.78;;;15.47;100.00
53619;BME280;68717;53.040;18.488;2023-08-07T00:59:03;99476.75;;;15.48;100.00
53619;BME280;68717;53.040;18.488;2023-08-07T00:59:15;99473.19;;;15.48;100.00
53619;BME280;68717;53.040;18.488;2023-08-07T00:59:28;99482.16;;;15.48;100.00
53619;BME280;68717;53.040;18.488;2023-08-07T00:59:41;99476.75;;;15.48;100.00
53619;BME280;68717;53.040;18.488;2023-08-07T00:59:54;99476.75;;;15.48;100.00
53619;BME280;68717;53.040;18.488;2023-08-07T01:00:07;99476.75;;;15.48;100.00
53619;BME280;68717;53.040;18.488;2023-08-07T01:00:22;99475.91;;;15.48;100.00
53619;BME280;68717;53.040;18.488;2023-08-07T01:00:36;99477.59;;;15.49;100.00
53619;BME280;68717;53.040;18.488;2023-08-07T01:00:49;99475.91;;;15.48;100.00
53619;BME280;68717;53.040;18.488;2023-08-07T01:01:02;99478.59;;;15.48;100.00
53619;BME280;68717;53.040;18.488;2023-08-07T01:01:15;99477.59;;;15.49;100.00
53619;BME280;68717;53.040;18.488;2023-08-07T01:01:28;99481.13;;;15.49;100.00
53619;BME280;68717;53.040;18.488;2023-08-07T01:01:41;99474.88;;;15.49;100.00
53619;BME280;68717;53.040;18.488;2023-08-07T01:01:54;99478.41;;;15.49;100.00
53619;BME280;68717;53.040;18.488;2023-08-07T01:02:07;99483.81;;;15.49;100.00
53619;BME280;68717;53.040;18.488;2023-08-07T01:02:19;99481.13;;;15.49;100.00
53619;BME280;68717;53.040;18.488;2023-08-07T01:02:32;99485.69;;;15.49;100.00
53619;BME280;68717;53.040;18.488;2023-08-07T01:02:47;99482.16;;;15.48;100.00
53619;BME280;68717;53.040;18.488;2023-08-07T01:03:04;99475.06;;;15.47;100.00
53619;BME280;68717;53.040;18.488;2023-08-07T01:03:17;99477.59;;;15.49;100.00
53619;BME280;68717;53.040;18.488;2023-08-07T01:03:30;99480.47;;;15.47;100.00
53619;BME280;68717;53.040;18.488;2023-08-07T01:03:43;99480.47;;;15.47;100.00
53619;BME280;68717;53.040;18.488;2023-08-07T01:03:56;99479.63;;;15.47;100.00
53619;BME280;68717;53.040;18.488;2023-08-07T01:04:08;99484.22;;;15.46;100.00
53619;BME280;68717;53.040;18.488;2023-08-07T01:04:22;99479.63;;;15.47;100.00
53619;BME280;68717;53.040;18.488;2023-08-07T01:04:35;99479.63;;;15.47;100.00
53619;BME280;68717;53.040;18.488;2023-08-07T01:04:48;99485.03;;;15.47;100.00
53619;BME280;68717;53.040;18.488;2023-08-07T01:05:02;99488.75;;;15.46;100.00
53619;BME280;68717;53.040;18.488;2023-08-07T01:05:14;99480.47;;;15.47;100.00
53619;BME280;68717;53.040;18.488;2023-08-07T01:05:27;99485.88;;;15.47;100.00
53619;BME280;68717;53.040;18.488;2023-08-07T01:05:40;99492.09;;;15.48;100.00
53619;BME280;68717;53.040;18.488;2023-08-07T01:05:53;99482.16;;;15.48;100.00
53619;BME280;68717;53.040;18.488;2023-08-07T01:06:07;99489.41;;;15.48;100.00
53619;BME280;68717;53.040;18.488;2023-08-07T01:06:19;99487.75;;;15.47;100.00
53619;BME280;68717;53.040;18.488;2023-08-07T01:06:32;99480.66;;;15.46;100.00
53619;BME280;68717;53.040;18.488;2023-08-07T01:06:45;99479.63;;;15.47;100.00
53619;BME280;68717;53.040;18.488;2023-08-07T01:06:57;99484.22;;;15.46;100.00
53619;BME280;68717;53.040;18.488;2023-08-07T01:07:10;99484.41;;;15.45;100.00
53619;BME280;68717;53.040;18.488;2023-08-07T01:07:23;99481.69;;;15.45;100.00
53619;BME280;68717;53.040;18.488;2023-08-07T01:07:35;99487.94;;;15.45;100.00
53619;BME280;68717;53.040;18.488;2023-08-07T01:07:48;99481.50;;;15.46;100.00
53619;BME280;68717;53.040;18.488;2023-08-07T01:08:06;99487.75;;;15.47;100.00
53619;BME280;68717;53.040;18.488;2023-08-07T01:08:19;99477.97;;;15.46;100.00